Time;durP1;ratioP1;P1;durP2;ratioP2;P2;SDS_P1;SDS_P2;PMS_P1;PMS_P2;Temp;Humidity;BMP_temperature;BMP_pressure;BME280_temperature;BME280_humidity;BME280_pressure;Samples;Min_cycle;Max_cycle;Signal;HPM_P1;HPM_P2
2021/12/11 00:01:42;;;;;;;33.40;4.93;;;8.00;99.90;;;;;;5003603;28;20097;-80
2021/12/11 00:04:14;;;;;;;18.92;3.47;;;8.10;99.90;;;;;;4998189;28;20042;-79
2021/12/11 00:06:48;;;;;;;22.70;3.90;;;8.10;99.90;;;;;;4998087;28;20137;-85
2021/12/11 00:09:25;;;;;;;32.63;4.45;;;8.00;99.90;;;;;;5008654;28;20049;-81
2021/12/11 00:12:17;;;;;;;34.35;3.70;;;8.00;99.90;;;;;;5010820;28;20054;-80
2021/12/11 00:14:49;;;;;;;39.45;4.45;;;8.00;99.90;;;;;;5004968;28;20117;-80
2021/12/11 00:17:25;;;;;;;51.78;6.10;;;8.00;99.90;;;;;;5006831;28;20045;-78
2021/12/11 00:19:52;;;;;;;32.00;3.42;;;8.10;99.90;;;;;;4998000;28;20092;-80
2021/12/11 00:22:22;;;;;;;32.22;3.88;;;8.10;99.90;;;;;;5006433;28;20077;-80
2021/12/11 00:24:50;;;;;;;33.90;3.95;;;8.00;99.90;;;;;;4996976;28;20046;-81
2021/12/11 00:27:25;;;;;;;45.08;3.88;;;8.00;99.90;;;;;;5000204;28;20513;-80
2021/12/11 00:29:52;;;;;;;27.38;4.18;;;8.00;99.90;;;;;;5004385;28;20050;-83
2021/12/11 00:32:30;;;;;;;30.98;4.80;;;8.00;99.90;;;;;;4994461;28;20077;-81
2021/12/11 00:35:04;;;;;;;29.38;4.28;;;8.00;99.90;;;;;;4994039;28;20046;-80
2021/12/11 00:37:32;;;;;;;19.50;3.65;;;8.20;99.90;;;;;;4991123;28;20042;-81
2021/12/11 00:40:21;;;;;;;32.97;4.38;;;8.10;99.90;;;;;;4998900;28;20124;-79
2021/12/11 00:42:51;;;;;;;38.40;4.47;;;8.10;99.90;;;;;;4985436;28;20077;-79
2021/12/11 00:45:31;;;;;;;19.63;3.20;;;8.10;99.90;;;;;;4999293;28;20116;-81
2021/12/11 00:48:01;;;;;;;38.30;4.70;;;8.10;99.90;;;;;;5010491;28;20037;-81
2021/12/11 00:50:35;;;;;;;32.67;3.63;;;8.10;99.90;;;;;;5005256;28;20046;-81
2021/12/11 00:53:15;;;;;;;44.33;4.00;;;8.20;99.90;;;;;;5004886;28;20050;-80
2021/12/11 00:55:49;;;;;;;30.75;4.10;;;8.20;99.90;;;;;;5001520;28;20073;-81
2021/12/11 00:58:32;;;;;;;37.72;2.90;;;8.20;99.90;;;;;;4997106;28;20074;-81
2021/12/11 01:01:08;;;;;;;25.42;3.47;;;8.10;99.90;;;;;;4987965;28;20042;-80
2021/12/11 01:03:48;;;;;;;24.08;3.10;;;8.10;99.90;;;;;;4997118;28;20395;-80
2021/12/11 01:06:24;;;;;;;29.35;3.63;;;8.10;99.90;;;;;;4997133;28;20080;-78
2021/12/11 01:08:58;;;;;;;28.57;4.33;;;8.10;99.90;;;;;;4998883;28;20082;-79
2021/12/11 01:11:28;;;;;;;46.20;3.88;;;8.10;99.90;;;;;;4996068;28;20042;-79
2021/12/11 01:14:13;;;;;;;31.13;3.88;;;8.10;99.90;;;;;;4985139;28;20510;-80
2021/12/11 01:16:43;;;;;;;26.48;3.28;;;8.20;99.90;;;;;;5007683;28;20089;-77
2021/12/11 01:19:17;;;;;;;27.45;3.67;;;8.20;99.90;;;;;;4992525;28;20104;-81
2021/12/11 01:21:56;;;;;;;33.50;3.55;;;8.20;99.90;;;;;;4976794;28;20050;-80
2021/12/11 01:24:43;;;;;;;29.83;3.25;;;8.10;99.90;;;;;;4993058;28;20047;-80
2021/12/11 01:27:16;;;;;;;27.25;3.90;;;7.90;99.90;;;;;;4985998;28;20046;-79
2021/12/11 01:29:45;;;;;;;24.92;3.38;;;7.80;99.90;;;;;;5000612;28;20469;-84
2021/12/11 01:32:14;;;;;;;33.55;3.67;;;7.80;99.90;;;;;;5011778;28;20077;-80
2021/12/11 01:34:43;;;;;;;30.08;3.53;;;7.80;99.90;;;;;;4993311;28;20047;-79
2021/12/11 01:37:10;;;;;;;29.70;3.53;;;7.80;99.90;;;;;;4993616;28;20101;-79
2021/12/11 01:39:40;;;;;;;23.85;4.07;;;7.80;99.90;;;;;;4999148;28;20051;-84
2021/12/11 01:42:15;;;;;;;36.70;3.10;;;7.80;99.90;;;;;;5010837;28;20043;-79
2021/12/11 01:44:44;;;;;;;27.55;3.30;;;7.70;99.90;;;;;;4999287;28;20510;-80
2021/12/11 01:47:18;;;;;;;38.97;3.63;;;7.60;99.90;;;;;;4996851;28;20054;-78
2021/12/11 01:49:50;;;;;;;38.30;5.57;;;7.50;99.90;;;;;;4998519;28;20042;-80
2021/12/11 01:52:32;;;;;;;27.38;3.65;;;7.60;99.90;;;;;;4996188;28;20119;-81
2021/12/11 01:55:00;;;;;;;32.50;4.15;;;7.60;99.90;;;;;;4996241;28;20046;-78
2021/12/11 01:57:29;;;;;;;29.20;3.58;;;7.50;99.90;;;;;;5013953;28;20058;-78
2021/12/11 02:00:12;;;;;;;33.10;4.25;;;7.40;99.90;;;;;;4994569;28;20185;-78
2021/12/11 02:02:44;;;;;;;36.65;3.53;;;7.30;99.90;;;;;;4983872;28;20046;-78
2021/12/11 02:05:13;;;;;;;34.72;3.65;;;7.10;99.90;;;;;;4999973;28;20422;-78
2021/12/11 02:07:47;;;;;;;22.10;3.38;;;7.10;99.90;;;;;;5011553;28;20498;-80
2021/12/11 02:10:33;;;;;;;20.13;3.25;;;7.20;99.90;;;;;;4994659;28;20058;-79
2021/12/11 02:13:04;;;;;;;26.20;3.22;;;7.20;99.90;;;;;;4992819;28;20046;-80
2021/12/11 02:15:37;;;;;;;21.50;2.92;;;7.20;99.90;;;;;;4992875;28;20085;-79
2021/12/11 02:18:12;;;;;;;24.77;3.50;;;7.40;99.90;;;;;;4999495;28;20054;-79
2021/12/11 02:20:49;;;;;;;27.67;4.03;;;7.30;99.90;;;;;;4996404;28;20097;-79
2021/12/11 02:23:17;;;;;;;25.15;3.55;;;7.30;99.90;;;;;;4989222;28;20070;-79
2021/12/11 02:25:48;;;;;;;27.65;3.40;;;7.20;99.90;;;;;;4996541;28;20097;-78
2021/12/11 02:28:39;;;;;;;26.60;3.00;;;7.00;99.90;;;;;;4979937;28;20677;-81
2021/12/11 02:31:26;;;;;;;14.23;2.72;;;6.90;99.90;;;;;;5006934;28;20421;-78
2021/12/11 02:34:11;;;;;;;16.73;3.00;;;6.80;99.90;;;;;;4981147;28;20047;-79
2021/12/11 02:36:57;;;;;;;30.92;3.38;;;6.60;99.90;;;;;;4991009;28;20509;-80
2021/12/11 02:39:49;;;;;;;12.32;1.98;;;6.50;99.90;;;;;;4999091;28;20224;-80
2021/12/11 02:42:19;;;;;;;14.32;2.33;;;6.30;99.90;;;;;;4998883;28;20108;-78
2021/12/11 02:45:12;;;;;;;24.65;3.35;;;6.10;99.90;;;;;;4994729;28;20046;-79
2021/12/11 02:48:03;;;;;;;18.70;2.65;;;5.90;99.90;;;;;;4994552;28;20458;-81
2021/12/11 02:50:44;;;;;;;27.00;2.80;;;5.70;99.90;;;;;;4995307;28;20946;-79
2021/12/11 02:53:17;;;;;;;27.33;3.33;;;5.60;99.90;;;;;;5002421;28;20045;-81
2021/12/11 02:55:58;;;;;;;30.25;3.05;;;5.80;99.90;;;;;;4998253;28;20050;-79
2021/12/11 02:58:29;;;;;;;18.88;3.22;;;5.80;99.90;;;;;;4998144;28;20100;-81
2021/12/11 03:01:06;;;;;;;29.60;2.78;;;5.70;99.90;;;;;;4996429;28;20092;-80
2021/12/11 03:03:40;;;;;;;22.75;3.22;;;5.50;99.90;;;;;;4997737;28;20569;-80
2021/12/11 03:06:17;;;;;;;12.60;1.92;;;5.30;99.90;;;;;;4996329;28;20042;-81
2021/12/11 03:08:45;;;;;;;;;;;5.10;99.90;;;;;;4978838;28;20050;-81
2021/12/11 03:11:16;;;;;;;23.30;3.05;;;4.80;99.90;;;;;;4998946;28;20521;-81
2021/12/11 03:13:50;;;;;;;19.25;2.90;;;4.70;99.90;;;;;;4989209;28;20047;-79
2021/12/11 03:16:20;;;;;;;19.45;2.90;;;4.60;99.90;;;;;;4989500;28;20123;-81
2021/12/11 03:18:48;;;;;;;22.13;3.40;;;4.40;99.90;;;;;;5002798;28;20092;-83
2021/12/11 03:21:16;;;;;;;17.20;3.10;;;4.30;99.90;;;;;;4995717;28;20052;-80
2021/12/11 03:23:44;;;;;;;20.83;3.28;;;4.10;99.90;;;;;;4983995;28;20573;-79
2021/12/11 03:26:11;;;;;;;15.57;2.80;;;4.00;99.90;;;;;;5006595;28;20054;-78
2021/12/11 03:28:38;;;;;;;18.55;3.03;;;3.90;99.90;;;;;;4993259;28;20050;-81
2021/12/11 03:31:08;;;;;;;19.65;4.05;;;3.80;99.90;;;;;;5002401;28;20120;-80
2021/12/11 03:33:41;;;;;;;18.42;3.38;;;3.70;99.90;;;;;;4995037;28;20129;-83
2021/12/11 03:36:12;;;;;;;15.68;3.13;;;3.70;99.90;;;;;;5013296;28;20078;-81
2021/12/11 03:38:43;;;;;;;20.15;3.72;;;3.60;99.90;;;;;;4997518;28;20053;-80
2021/12/11 03:41:11;;;;;;;15.10;3.60;;;3.50;99.90;;;;;;4991029;28;20537;-79
2021/12/11 03:43:38;;;;;;;18.33;3.20;;;3.50;99.90;;;;;;4997098;28;20054;-79
2021/12/11 03:46:09;;;;;;;14.43;3.03;;;3.40;99.90;;;;;;4995712;28;20049;-80
2021/12/11 03:48:53;;;;;;;21.63;4.18;;;3.30;99.90;;;;;;5001041;28;20046;-80
2021/12/11 03:51:24;;;;;;;15.68;3.50;;;3.20;99.90;;;;;;4977969;28;20121;-80
2021/12/11 03:53:52;;;;;;;19.10;3.83;;;3.10;99.90;;;;;;4977389;28;20495;-80
2021/12/11 03:56:20;;;;;;;19.13;3.92;;;3.00;99.90;;;;;;4983109;28;20049;-80
2021/12/11 03:58:51;;;;;;;18.90;3.47;;;3.00;99.90;;;;;;4996846;28;20049;-81
2021/12/11 04:01:25;;;;;;;17.75;2.88;;;3.00;99.90;;;;;;4996822;28;20634;-79
2021/12/11 04:03:56;;;;;;;12.48;3.25;;;2.90;99.90;;;;;;4997250;28;20057;-82
2021/12/11 04:06:25;;;;;;;16.02;3.33;;;2.90;99.90;;;;;;5004661;28;20073;-81
2021/12/11 04:08:53;;;;;;;20.27;2.90;;;2.80;99.90;;;;;;5014179;28;20391;-79
2021/12/11 04:11:28;;;;;;;11.38;2.47;;;2.90;99.90;;;;;;4996436;28;20509;-81
2021/12/11 04:14:03;;;;;;;16.20;3.55;;;2.80;99.90;;;;;;4997296;28;20092;-79
2021/12/11 04:16:30;;;;;;;13.52;2.83;;;2.80;99.90;;;;;;5013603;28;20100;-82
2021/12/11 04:18:58;;;;;;;16.52;3.05;;;2.70;99.90;;;;;;4996639;28;20089;-86
2021/12/11 04:21:25;;;;;;;19.58;3.40;;;2.70;99.90;;;;;;4991918;28;20496;-81
2021/12/11 04:23:52;;;;;;;14.52;2.45;;;2.70;99.90;;;;;;4997078;28;20058;-78
2021/12/11 04:26:19;;;;;;;20.40;3.33;;;2.80;99.90;;;;;;5000925;28;20074;-79
2021/12/11 04:28:47;;;;;;;20.10;2.95;;;2.90;99.90;;;;;;5004918;28;20104;-81
2021/12/11 04:31:20;;;;;;;17.35;2.70;;;3.00;99.90;;;;;;4996127;28;20050;-81
2021/12/11 04:33:49;;;;;;;20.13;2.95;;;3.10;99.90;;;;;;4995153;28;20104;-81
2021/12/11 04:36:23;;;;;;;23.25;3.83;;;3.20;99.90;;;;;;4998397;28;20050;-79
2021/12/11 04:38:50;;;;;;;19.83;2.70;;;3.50;99.90;;;;;;4994046;28;20093;-82
2021/12/11 04:41:25;;;;;;;29.77;3.58;;;3.60;99.90;;;;;;5009445;28;20421;-81
2021/12/11 04:43:54;;;;;;;25.52;3.30;;;3.80;99.90;;;;;;4996204;28;20567;-79
2021/12/11 04:46:21;;;;;;;19.83;3.50;;;4.10;99.90;;;;;;5001254;28;20101;-82
2021/12/11 04:52:15;;;;;;;23.13;3.10;;;4.40;99.90;;;;;;5002207;28;20057;-80
2021/12/11 05:00:30;;;;;;;31.50;3.78;;;4.70;99.90;;;;;;4956878;28;20651;-79
2021/12/11 05:05:48;;;;;;;19.60;3.28;;;4.90;99.90;;;;;;5017873;28;20046;-79
2021/12/11 05:08:48;;;;;;;20.05;3.35;;;4.90;99.90;;;;;;5013056;28;20461;-83
2021/12/11 05:11:06;;;;;;;26.60;3.92;;;5.00;99.90;;;;;;5008344;28;20112;-82
2021/12/11 05:13:33;;;;;;;16.70;3.25;;;5.10;99.90;;;;;;4976739;28;20466;-79
2021/12/11 05:16:06;;;;;;;25.40;3.80;;;5.10;99.90;;;;;;4991966;28;20145;-82
2021/12/11 05:18:37;;;;;;;25.15;3.50;;;5.20;99.90;;;;;;4992725;28;20054;-79
2021/12/11 05:21:08;;;;;;;31.77;3.58;;;5.30;99.90;;;;;;4996366;28;20130;-79
2021/12/11 05:23:36;;;;;;;25.23;3.92;;;5.40;99.90;;;;;;4996271;28;20060;-82
2021/12/11 05:26:04;;;;;;;19.52;3.40;;;5.40;99.90;;;;;;5004088;28;20506;-81
2021/12/11 05:28:32;;;;;;;21.17;3.45;;;5.30;99.90;;;;;;4992689;28;20100;-80
2021/12/11 05:31:03;;;;;;;31.73;3.55;;;5.30;99.90;;;;;;4993615;28;20109;-79
2021/12/11 05:33:30;;;;;;;26.15;4.22;;;5.30;99.90;;;;;;4993200;28;20058;-80
2021/12/11 05:35:57;;;;;;;25.92;4.78;;;5.30;99.90;;;;;;4995275;28;20104;-82
2021/12/11 05:38:26;;;;;;;18.80;3.45;;;5.30;99.90;;;;;;4995862;28;20058;-78
2021/12/11 05:40:58;;;;;;;24.05;3.53;;;5.30;99.90;;;;;;4992064;28;20133;-80
2021/12/11 05:43:25;;;;;;;28.55;3.55;;;5.40;99.90;;;;;;5000828;28;20050;-78
2021/12/11 05:45:53;;;;;;;23.83;3.20;;;5.50;99.90;;;;;;4993251;28;20054;-82
2021/12/11 05:48:20;;;;;;;17.52;3.05;;;5.60;99.90;;;;;;4984590;28;20101;-82
2021/12/11 05:50:53;;;;;;;29.33;3.95;;;5.60;99.90;;;;;;4995704;28;20112;-79
2021/12/11 05:53:22;;;;;;;21.65;4.47;;;5.60;99.90;;;;;;4998846;28;20520;-79
2021/12/11 05:55:55;;;;;;;28.88;4.03;;;5.70;99.90;;;;;;5009999;28;20556;-79
2021/12/11 06:01:10;;;;;;;27.00;3.75;;;5.80;99.90;;;;;;4996774;28;20050;-82
2021/12/11 06:03:37;;;;;;;28.20;3.92;;;5.80;99.90;;;;;;4999423;28;20418;-83
2021/12/11 06:06:05;;;;;;;18.52;3.42;;;5.80;99.90;;;;;;4999457;28;20058;-79
2021/12/11 06:08:32;;;;;;;24.95;3.92;;;5.80;99.90;;;;;;5011541;28;20068;-79
2021/12/11 06:11:00;;;;;;;19.15;2.97;;;5.90;99.90;;;;;;4996746;28;20054;-79
2021/12/11 06:13:29;;;;;;;23.45;3.72;;;5.90;99.90;;;;;;4996699;28;20058;-79
2021/12/11 06:15:58;;;;;;;20.95;3.40;;;5.90;99.90;;;;;;4996682;28;20054;-79
2021/12/11 06:18:25;;;;;;;15.43;3.70;;;6.00;99.90;;;;;;4997358;28;20077;-78
2021/12/11 06:20:52;;;;;;;18.63;2.85;;;6.00;99.90;;;;;;4995660;28;20050;-81
2021/12/11 06:23:21;;;;;;;18.45;3.25;;;6.00;99.90;;;;;;4996568;28;20081;-85
2021/12/11 06:25:50;;;;;;;29.92;3.97;;;6.00;99.90;;;;;;5001479;28;20053;-87
2021/12/11 06:28:17;;;;;;;17.48;2.90;;;6.00;99.90;;;;;;4988416;28;20046;-84
2021/12/11 06:30:45;;;;;;;18.23;2.78;;;6.10;99.90;;;;;;5018513;28;20575;-88
2021/12/11 06:33:12;;;;;;;18.08;2.83;;;6.20;99.90;;;;;;5002409;28;20446;-82
2021/12/11 06:35:51;;;;;;;24.45;2.95;;;6.20;99.90;;;;;;4998481;28;20460;-80
2021/12/11 06:38:23;;;;;;;23.42;3.13;;;6.20;99.90;;;;;;5017400;28;20050;-82
2021/12/11 06:40:52;;;;;;;21.98;3.15;;;6.10;99.90;;;;;;4999132;28;20115;-81
2021/12/11 06:43:19;;;;;;;24.70;3.38;;;6.10;99.90;;;;;;4999263;28;20489;-82
2021/12/11 06:45:46;;;;;;;27.25;3.55;;;6.10;99.90;;;;;;5008923;28;20060;-79
2021/12/11 06:48:15;;;;;;;23.10;3.80;;;6.10;99.90;;;;;;4997118;28;20042;-78
2021/12/11 06:50:45;;;;;;;17.60;3.50;;;6.10;99.90;;;;;;4998598;28;20177;-79
2021/12/11 06:53:24;;;;;;;24.00;2.97;;;6.10;99.90;;;;;;4998284;28;20050;-79
2021/12/11 06:55:51;;;;;;;28.40;4.38;;;6.10;99.90;;;;;;4996032;28;20096;-79
2021/12/11 06:58:18;;;;;;;23.77;3.85;;;6.20;99.90;;;;;;4987288;28;20082;-79
2021/12/11 07:00:46;;;;;;;24.80;3.92;;;6.20;99.90;;;;;;4985833;28;20104;-81
2021/12/11 07:03:13;;;;;;;17.00;2.95;;;6.20;99.90;;;;;;5011757;28;20132;-81
2021/12/11 07:05:40;;;;;;;17.63;3.00;;;6.20;99.90;;;;;;4994233;28;20069;-80
2021/12/11 07:08:08;;;;;;;14.73;2.70;;;6.20;99.90;;;;;;4990809;28;20679;-79
2021/12/11 07:10:35;;;;;;;18.75;3.10;;;6.20;99.90;;;;;;5004637;28;20088;-81
2021/12/11 07:13:02;;;;;;;19.88;3.30;;;6.10;99.90;;;;;;5011738;28;20045;-80
2021/12/11 07:15:29;;;;;;;25.58;4.25;;;6.20;99.90;;;;;;5004012;28;20575;-80
2021/12/11 07:17:56;;;;;;;20.45;3.42;;;6.20;99.90;;;;;;5006593;28;20136;-79
2021/12/11 07:20:23;;;;;;;24.63;4.13;;;6.20;99.90;;;;;;4995768;28;20112;-79
2021/12/11 07:22:51;;;;;;;21.17;3.10;;;6.30;99.90;;;;;;4997159;28;20049;-80
2021/12/11 07:25:43;;;;;;;22.38;3.90;;;6.30;99.90;;;;;;4988107;28;20101;-80
2021/12/11 07:28:11;;;;;;;20.42;2.60;;;6.30;99.90;;;;;;5006193;28;20074;-78
2021/12/11 07:30:41;;;;;;;23.38;3.10;;;6.40;99.90;;;;;;4988493;28;20473;-81
2021/12/11 07:33:09;;;;;;;21.55;3.28;;;6.40;99.90;;;;;;4989890;28;20058;-80
2021/12/11 07:35:38;;;;;;;24.17;3.55;;;6.40;99.90;;;;;;5008692;28;20089;-79
2021/12/11 07:38:05;;;;;;;26.23;3.42;;;6.40;99.90;;;;;;5004555;28;20046;-80
2021/12/11 07:40:37;;;;;;;23.10;3.25;;;6.40;99.90;;;;;;4984224;28;20092;-82
2021/12/11 07:43:04;;;;;;;20.15;2.88;;;6.40;99.90;;;;;;5002284;28;20092;-80
2021/12/11 07:45:33;;;;;;;21.85;3.10;;;6.40;99.90;;;;;;5000377;28;20079;-81
2021/12/11 07:48:02;;;;;;;18.88;2.88;;;6.40;99.90;;;;;;4984021;28;20076;-80
2021/12/11 07:50:29;;;;;;;16.48;3.10;;;6.40;99.90;;;;;;4994518;28;20749;-79
2021/12/11 07:52:56;;;;;;;21.30;4.18;;;6.40;99.90;;;;;;4997260;28;20073;-80
2021/12/11 07:55:23;;;;;;;23.17;3.55;;;6.40;99.90;;;;;;4995082;28;20100;-82
2021/12/11 07:57:50;;;;;;;20.45;3.15;;;6.50;99.90;;;;;;4988596;28;20065;-79
2021/12/11 08:00:21;;;;;;;29.75;3.97;;;6.50;99.90;;;;;;5002738;28;20054;-81
2021/12/11 08:02:49;;;;;;;20.23;3.35;;;6.50;99.90;;;;;;4981233;28;20104;-78
2021/12/11 08:05:17;;;;;;;18.60;3.58;;;6.50;99.90;;;;;;5010034;28;20435;-80
2021/12/11 08:07:44;;;;;;;17.98;3.60;;;6.50;99.90;;;;;;5002066;28;20113;-81
2021/12/11 08:10:19;;;;;;;21.23;3.65;;;6.50;99.90;;;;;;4992384;28;20046;-79
2021/12/11 08:12:46;;;;;;;24.50;2.97;;;6.50;99.90;;;;;;4992720;28;20050;-80
2021/12/11 08:15:15;;;;;;;24.33;3.97;;;6.50;99.90;;;;;;5006376;28;20042;-80
2021/12/11 08:17:43;;;;;;;18.95;3.03;;;6.50;99.90;;;;;;4993210;28;20058;-80
2021/12/11 08:20:12;;;;;;;20.80;3.08;;;6.60;99.90;;;;;;4994469;28;20509;-80
2021/12/11 08:22:39;;;;;;;21.50;3.58;;;6.60;99.90;;;;;;4993690;28;20054;-81
2021/12/11 08:25:07;;;;;;;18.38;3.60;;;6.60;99.90;;;;;;5005994;28;20054;-78
2021/12/11 08:27:34;;;;;;;19.70;3.53;;;6.60;99.90;;;;;;4989080;28;20073;-81
2021/12/11 08:30:03;;;;;;;27.77;4.32;;;6.60;99.90;;;;;;4996659;28;20042;-82
2021/12/11 08:32:30;;;;;;;21.42;3.72;;;6.60;99.90;;;;;;4995692;28;20525;-80
2021/12/11 08:34:57;;;;;;;22.92;3.47;;;6.60;99.90;;;;;;4992145;28;20057;-80
2021/12/11 08:37:25;;;;;;;22.00;3.63;;;6.60;99.90;;;;;;4988953;28;20061;-79
2021/12/11 08:39:53;;;;;;;29.63;3.65;;;6.60;99.90;;;;;;5002696;28;20081;-81
2021/12/11 08:42:23;;;;;;;18.08;3.22;;;6.70;99.90;;;;;;5005772;28;20061;-80
2021/12/11 08:44:58;;;;;;;21.23;3.45;;;6.70;99.90;;;;;;4984721;28;20081;-80
2021/12/11 08:47:26;;;;;;;21.08;3.60;;;6.70;99.90;;;;;;4989700;28;20069;-80
2021/12/11 08:49:55;;;;;;;17.67;3.42;;;6.70;99.90;;;;;;4991939;28;20046;-80
2021/12/11 08:52:24;;;;;;;16.33;3.33;;;6.70;99.90;;;;;;4983903;28;20046;-79
2021/12/11 08:54:52;;;;;;;24.95;3.47;;;6.70;99.90;;;;;;4987623;28;20054;-79
2021/12/11 08:57:24;;;;;;;25.50;3.40;;;6.70;99.90;;;;;;4986728;28;20042;-81
2021/12/11 08:59:56;;;;;;;15.48;3.05;;;6.70;99.90;;;;;;5001053;28;20049;-81
2021/12/11 09:02:35;;;;;;;21.52;3.30;;;6.80;99.90;;;;;;5007023;28;20563;-81
2021/12/11 09:05:18;;;;;;;21.83;3.15;;;6.90;99.90;;;;;;4988966;28;20055;-82
2021/12/11 09:08:04;;;;;;;20.90;3.53;;;6.90;99.90;;;;;;4980186;28;20038;-80
2021/12/11 09:11:06;;;;;;;29.27;3.70;;;7.00;99.90;;;;;;4993676;28;20042;-79
2021/12/11 09:13:39;;;;;;;14.25;2.85;;;7.10;99.90;;;;;;4968904;28;20042;-80
2021/12/11 09:16:27;;;;;;;20.23;2.97;;;7.20;99.90;;;;;;4995003;28;20046;-79
2021/12/11 09:19:05;;;;;;;13.60;2.88;;;7.20;99.90;;;;;;4989572;28;20054;-79
2021/12/11 09:21:37;;;;;;;19.15;3.35;;;7.10;99.90;;;;;;4990888;28;20046;-80
2021/12/11 09:24:07;;;;;;;28.23;4.35;;;7.20;99.90;;;;;;4993904;28;20066;-80
2021/12/11 09:26:49;;;;;;;21.05;3.45;;;7.20;99.90;;;;;;4990859;28;20076;-80
2021/12/11 09:29:25;;;;;;;26.17;4.50;;;7.30;99.90;;;;;;4998034;28;20042;-80
2021/12/11 09:32:07;;;;;;;21.42;3.33;;;7.30;99.90;;;;;;4995543;28;20100;-80
2021/12/11 09:34:49;;;;;;;21.30;3.78;;;7.40;99.90;;;;;;4992827;28;20054;-80
2021/12/11 09:37:16;;;;;;;23.00;3.92;;;7.50;99.90;;;;;;5000044;28;20042;-80
2021/12/11 09:39:55;;;;;;;22.30;3.72;;;7.60;99.90;;;;;;4994176;28;20152;-81
2021/12/11 09:42:22;;;;;;;22.45;3.85;;;7.60;99.90;;;;;;4996021;28;20073;-80
2021/12/11 09:44:54;;;;;;;23.10;3.20;;;7.70;99.90;;;;;;5000271;28;20053;-79
2021/12/11 09:47:31;;;;;;;20.88;4.00;;;7.70;99.90;;;;;;4988185;28;20050;-81
2021/12/11 09:50:05;;;;;;;17.20;3.28;;;7.70;99.90;;;;;;4999219;28;20058;-80
2021/12/11 09:52:32;;;;;;;18.92;3.20;;;7.70;99.90;;;;;;5005085;28;20038;-80
2021/12/11 09:55:22;;;;;;;18.98;3.42;;;7.70;99.90;;;;;;5000304;28;20050;-81
2021/12/11 09:57:55;;;;;;;23.52;4.07;;;7.70;99.90;;;;;;4989816;28;20042;-82
2021/12/11 10:00:33;;;;;;;21.92;3.78;;;7.70;99.90;;;;;;5004634;28;20051;-82
2021/12/11 10:03:02;;;;;;;17.80;3.30;;;7.80;99.90;;;;;;4996249;28;20054;-79
2021/12/11 10:05:36;;;;;;;20.13;4.40;;;7.90;99.90;;;;;;5004233;28;20050;-79
2021/12/11 10:11:08;;;;;;;26.92;5.53;;;8.00;99.90;;;;;;4997003;28;20502;-81
2021/12/11 10:13:43;;;;;;;14.88;3.42;;;8.00;99.90;;;;;;4996468;28;20050;-79
2021/12/11 10:16:12;;;;;;;24.90;4.00;;;8.00;99.90;;;;;;4998307;28;20066;-81
2021/12/11 10:18:39;;;;;;;25.88;3.60;;;8.00;99.90;;;;;;4985716;28;20101;-79
2021/12/11 10:21:10;;;;;;;18.55;3.72;;;8.00;99.90;;;;;;4997153;28;20429;-79
2021/12/11 10:23:39;;;;;;;17.92;3.47;;;8.10;99.90;;;;;;4996450;28;20046;-80
2021/12/11 10:26:10;;;;;;;23.63;3.80;;;8.20;99.90;;;;;;5004942;28;20042;-80
2021/12/11 10:28:44;;;;;;;24.05;3.95;;;8.20;99.90;;;;;;5005047;28;20078;-79
2021/12/11 10:31:17;;;;;;;24.63;4.32;;;8.30;99.90;;;;;;4997800;28;20068;-78
2021/12/11 10:33:45;;;;;;;18.38;6.80;;;8.50;99.90;;;;;;4998536;28;20092;-79
2021/12/11 10:36:25;;;;;;;28.70;4.68;;;8.60;99.90;;;;;;4999340;28;20850;-79
2021/12/11 10:38:53;;;;;;;19.55;3.75;;;8.60;99.90;;;;;;4995182;28;20133;-79
2021/12/11 10:41:25;;;;;;;15.18;3.58;;;8.50;99.90;;;;;;4994745;28;20129;-79
2021/12/11 10:43:59;;;;;;;21.27;4.93;;;8.40;99.90;;;;;;5000788;28;20050;-81
2021/12/11 10:46:32;;;;;;;22.10;4.35;;;8.40;99.90;;;;;;5000673;28;20073;-79
2021/12/11 10:49:02;;;;;;;21.20;4.35;;;8.50;99.90;;;;;;5010708;28;20081;-79
2021/12/11 10:51:34;;;;;;;19.48;4.97;;;8.50;99.90;;;;;;4998001;28;20050;-79
2021/12/11 10:54:01;;;;;;;20.00;3.70;;;8.50;99.90;;;;;;4998499;28;20046;-81
2021/12/11 10:56:28;;;;;;;23.30;4.18;;;8.50;99.90;;;;;;5005415;28;20111;-79
2021/12/11 10:58:59;;;;;;;20.63;3.83;;;8.60;99.90;;;;;;4998203;28;20145;-79
2021/12/11 11:01:38;;;;;;;17.13;3.25;;;8.70;99.90;;;;;;4996378;28;20054;-80
2021/12/11 11:04:18;;;;;;;19.70;3.80;;;8.80;99.90;;;;;;4995732;28;20074;-79
2021/12/11 11:06:45;;;;;;;17.98;3.60;;;8.80;99.90;;;;;;4978296;28;20105;-81
2021/12/11 11:09:16;;;;;;;20.55;4.28;;;8.90;99.90;;;;;;4988182;28;20465;-81
2021/12/11 11:11:43;;;;;;;27.15;4.07;;;9.10;99.90;;;;;;4994347;28;20046;-80
2021/12/11 11:14:12;;;;;;;19.30;3.45;;;9.00;99.90;;;;;;4994685;28;20046;-79
2021/12/11 11:16:56;;;;;;;19.70;4.07;;;9.00;99.90;;;;;;4989823;28;20045;-79
2021/12/11 11:19:25;;;;;;;21.35;4.78;;;9.00;99.90;;;;;;4979452;28;20054;-78
2021/12/11 11:21:58;;;;;;;16.38;3.70;;;9.00;99.90;;;;;;4997617;28;20100;-82
2021/12/11 11:24:29;;;;;;;19.00;3.78;;;9.10;99.90;;;;;;4998227;28;20054;-79
2021/12/11 11:26:58;;;;;;;24.73;4.40;;;9.20;99.90;;;;;;4996626;28;20050;-80
2021/12/11 11:29:26;;;;;;;15.05;3.78;;;9.20;99.90;;;;;;4997469;28;20445;-80
2021/12/11 11:31:58;;;;;;;20.25;4.72;;;9.10;99.90;;;;;;4997857;28;20050;-81
2021/12/11 11:34:27;;;;;;;18.75;4.03;;;9.10;99.90;;;;;;4997604;28;20046;-79
2021/12/11 11:36:58;;;;;;;19.35;3.90;;;9.10;99.90;;;;;;4995649;28;20069;-80
2021/12/11 11:39:27;;;;;;;15.35;3.78;;;9.10;99.90;;;;;;4998459;28;20062;-82
2021/12/11 11:41:57;;;;;;;19.92;3.90;;;9.20;99.90;;;;;;4994436;28;20054;-80
2021/12/11 11:44:27;;;;;;;23.02;4.70;;;9.20;99.90;;;;;;5006758;28;20049;-80
2021/12/11 11:46:58;;;;;;;24.63;4.28;;;9.20;99.90;;;;;;4997670;28;20576;-80
2021/12/11 11:49:26;;;;;;;22.58;4.35;;;9.10;99.90;;;;;;4995908;28;20050;-81
2021/12/11 11:51:57;;;;;;;21.80;4.35;;;9.10;99.90;;;;;;4997505;28;20069;-81
2021/12/11 11:54:28;;;;;;;18.13;4.20;;;9.10;99.90;;;;;;4993446;28;20054;-80
2021/12/11 11:57:05;;;;;;;14.82;3.80;;;9.10;99.90;;;;;;5012011;28;20099;-79
2021/12/11 11:59:34;;;;;;;14.15;3.50;;;9.10;99.90;;;;;;4997817;28;20050;-79
2021/12/11 12:02:06;;;;;;;29.38;4.00;;;9.20;99.90;;;;;;5008718;28;20062;-79
2021/12/11 12:04:35;;;;;;;26.35;4.63;;;9.20;99.90;;;;;;4994152;28;20433;-81
2021/12/11 12:07:03;;;;;;;25.58;4.75;;;9.30;99.90;;;;;;5001177;28;20088;-80
2021/12/11 12:09:35;;;;;;;20.35;4.20;;;9.20;99.90;;;;;;4995130;28;20097;-81
2021/12/11 12:12:05;;;;;;;18.05;4.55;;;9.20;99.90;;;;;;4996894;28;20096;-79
2021/12/11 12:14:33;;;;;;;22.45;5.38;;;9.20;99.90;;;;;;4994530;28;20084;-82
2021/12/11 12:17:02;;;;;;;24.30;5.28;;;9.30;99.90;;;;;;5001847;28;20572;-81
2021/12/11 12:19:29;;;;;;;19.67;5.65;;;9.30;99.90;;;;;;4982764;28;20050;-86
2021/12/11 12:22:00;;;;;;;20.67;5.03;;;9.30;99.90;;;;;;4988194;28;20057;-87
2021/12/11 12:24:31;;;;;;;27.00;6.32;;;9.20;99.90;;;;;;4992785;28;20042;-85
2021/12/11 12:27:05;;;;;;;28.42;5.75;;;9.20;99.90;;;;;;5009428;28;20101;-85
2021/12/11 12:29:35;;;;;;;25.88;4.68;;;9.30;99.90;;;;;;5002174;28;20107;-81
2021/12/11 12:32:13;;;;;;;19.23;4.10;;;9.20;99.90;;;;;;4997305;28;20050;-84
2021/12/11 12:34:40;;;;;;;20.80;5.22;;;9.20;99.90;;;;;;4996813;28;20050;-82
2021/12/11 12:37:08;;;;;;;19.65;5.07;;;9.10;99.90;;;;;;4995477;28;20097;-80
2021/12/11 12:39:39;;;;;;;18.63;4.22;;;9.20;99.90;;;;;;5001296;28;20054;-81
2021/12/11 12:42:33;;;;;;;27.67;4.95;;;9.20;99.90;;;;;;4991471;28;20054;-80
2021/12/11 12:45:25;;;;;;;24.15;3.63;;;9.30;99.90;;;;;;4999454;28;20104;-79
2021/12/11 12:48:03;;;;;;;17.48;4.38;;;9.20;99.90;;;;;;4992957;28;20046;-82
2021/12/11 12:50:42;;;;;;;19.15;4.03;;;9.20;99.90;;;;;;4985106;28;20099;-79
2021/12/11 12:53:10;;;;;;;18.45;4.63;;;9.30;99.90;;;;;;4984781;28;20105;-80
2021/12/11 12:55:55;;;;;;;24.55;4.82;;;9.30;99.90;;;;;;5002337;28;20458;-80
2021/12/11 12:58:50;;;;;;;19.02;4.30;;;9.40;99.90;;;;;;4991066;28;20462;-82
2021/12/11 13:01:28;;;;;;;32.30;4.90;;;9.40;99.90;;;;;;4971641;28;20121;-82
2021/12/11 13:03:57;;;;;;;21.73;5.55;;;9.50;99.90;;;;;;4994082;28;20061;-80
2021/12/11 13:06:28;;;;;;;25.70;5.07;;;9.60;99.90;;;;;;4995459;28;20104;-81
2021/12/11 13:09:08;;;;;;;25.50;4.75;;;9.60;99.90;;;;;;4995541;28;20050;-79
2021/12/11 13:11:53;;;;;;;27.00;4.38;;;9.70;99.90;;;;;;4995635;28;20564;-80
2021/12/11 13:14:20;;;;;;;23.02;4.63;;;9.70;99.90;;;;;;4994366;28;20169;-80
2021/12/11 13:16:52;;;;;;;20.02;5.30;;;9.70;99.90;;;;;;5007571;28;20702;-78
2021/12/11 13:19:30;;;;;;;31.90;6.15;;;9.70;99.90;;;;;;5003224;28;20560;-78
2021/12/11 13:22:02;;;;;;;26.00;6.00;;;9.70;99.90;;;;;;5003198;28;20045;-77
2021/12/11 13:24:29;;;;;;;25.70;5.20;;;9.60;99.90;;;;;;4995026;28;20105;-79
2021/12/11 13:27:01;;;;;;;17.90;5.05;;;9.70;99.90;;;;;;4992550;28;20050;-82
2021/12/11 13:29:37;;;;;;;17.58;4.68;;;9.80;99.90;;;;;;4985258;28;20426;-80
2021/12/11 13:32:14;;;;;;;32.22;6.35;;;9.80;99.90;;;;;;4988616;28;20387;-79